ADDS METAR Data INFO
IDs: Format: Raw Decoded Include TAF

Data at: 1315 UTC 11 Dec 2017

KMOX 111255Z AUTO 31016G21KT 10SM OVC016 03/01 A2974 RMK AO2
KMOX 111235Z AUTO 31016G23KT 10SM OVC016 03/01 A2974 RMK AO2
KMOX 111215Z AUTO 31015G19KT 10SM OVC020 03/00 A2973 RMK AO2
KMOX 111155Z AUTO 31016G19KT 10SM SCT022 02/M01 A2972 RMK AO2
KMOX 111135Z AUTO 30012KT 10SM SCT120 03/M02 A2971 RMK AO2
KMOX 111115Z AUTO 30016KT 10SM SCT070 03/M02 A2970 RMK AO2
KMOX 111055Z AUTO 30013KT 10SM SCT070 BKN090 03/M02 A2970 RMK AO2
KMOX 111035Z AUTO 28009KT 10SM BKN090 BKN100 01/M02 A2971 RMK AO2
KMOX 111015Z AUTO 24005KT 10SM SCT075 SCT090 00/M02 A2971 RMK AO2
KMOX 110955Z AUTO 25003KT 10SM SCT075 SCT090 M01/M02 A2971 RMK AO2
KMOX 110935Z AUTO 00000KT 10SM SCT038 SCT050 BKN065 M01/M03 A2971 RMK AO2
KMOX 110915Z AUTO 16005KT 7SM UP BKN038 BKN047 OVC050 M01/M03 A2972 RMK AO2
KMOX 110855Z AUTO 21003KT 10SM SCT048 BKN050 OVC080 M01/M04 A2974 RMK AO2
KMOX 110835Z AUTO 20004KT 10SM SCT080 M02/M04 A2975 RMK AO2
KMOX 110815Z AUTO 20006KT 10SM CLR M02/M04 A2976 RMK AO2
KMOX 110755Z AUTO 20005KT 10SM CLR M02/M04 A2977 RMK AO2
KMOX 110735Z AUTO 20005KT 10SM CLR M02/M04 A2979 RMK AO2
KMOX 110715Z AUTO 18006KT 10SM CLR M02/M04 A2979 RMK AO2
KMOX 110655Z AUTO 18006KT 10SM SCT120 M01/M04 A2981 RMK AO2
KMOX 110635Z AUTO 17007KT 10SM SCT120 M01/M03 A2982 RMK AO2
KMOX 110615Z AUTO 18006KT 10SM CLR M01/M03 A2984 RMK AO2
KMOX 110555Z AUTO 17007KT 10SM SCT046 00/M04 A2984 RMK AO2
KMOX 110535Z AUTO 17008KT 10SM BKN046 BKN050 00/M04 A2985 RMK AO2
KMOX 110515Z AUTO 15007KT 10SM BKN050 00/M04 A2986 RMK AO2
KMOX 110455Z AUTO 17007KT 10SM BKN050 OVC065 M01/M04 A2989 RMK AO2
KMOX 110435Z AUTO 19005KT 10SM OVC050 M01/M04 A2990 RMK AO2
KMOX 110415Z AUTO 16007KT 10SM SCT037 SCT046 OVC055 M01/M04 A2989 RMK AO2
KMOX 110355Z AUTO 15008KT 10SM SCT043 BKN050 OVC080 M01/M04 A2989 RMK AO2
KMOX 110335Z AUTO 17005KT 10SM BKN050 OVC065 M01/M04 A2993 RMK AO2
KMOX 110315Z AUTO 17004KT 10SM SCT046 OVC060 M01/M04 A2994 RMK AO2
KMOX 110255Z AUTO 16004KT 10SM BKN050 OVC060 M01/M04 A2995 RMK AO2
KMOX 110235Z AUTO 17005KT 10SM SCT070 OVC080 M01/M05 A2995 RMK AO2
KMOX 110215Z AUTO 18005KT 10SM OVC080 M01/M05 A2996 RMK AO2
KMOX 110155Z AUTO 16004KT 10SM OVC080 M01/M05 A2995 RMK AO2
KMOX 110135Z AUTO 16003KT 10SM OVC080 M01/M05 A2996 RMK AO2
KMOX 110115Z AUTO 17005KT 10SM OVC090 M01/M05 A2997 RMK AO2
KMOX 110055Z AUTO 00000KT 10SM OVC090 M01/M05 A2999 RMK AO2
KMOX 110035Z AUTO 00000KT 10SM OVC090 M01/M05 A3000 RMK AO2
KMOX 110015Z AUTO 00000KT 10SM OVC090 M01/M05 A3001 RMK AO2
KMOX 102355Z AUTO 00000KT 10SM OVC090 M01/M05 A3002 RMK AO2
KMOX 102335Z AUTO 00000KT 10SM BKN080 OVC090 M01/M05 A3003 RMK AO2
KMOX 102315Z AUTO 00000KT 10SM OVC080 M01/M05 A3003 RMK AO2
KMOX 102255Z AUTO 33003KT 10SM OVC090 M01/M06 A3003 RMK AO2
KMOX 102235Z AUTO 31005KT 10SM OVC090 M01/M06 A3002 RMK AO2
KMOX 102215Z AUTO 32006KT 10SM OVC090 M01/M06 A3002 RMK AO2
KMOX 102155Z AUTO 31006KT 10SM BKN100 00/M06 A3002 RMK AO2
KMOX 102135Z AUTO 32009KT 10SM BKN090 00/M06 A3002 RMK AO2
KMOX 102115Z AUTO 31007KT 10SM SCT100 120 00/M06 A3002 RMK AO2
KMOX 102055Z AUTO 30010KT 10SM SCT120 00/M06 A3001 RMK AO2
KMOX 102035Z AUTO 32007KT 10SM SCT120 00/M06 A3001 RMK AO2
KMOX 102015Z AUTO 33009KT 10SM CLR 00/M06 A3002 RMK AO2
KMOX 101955Z AUTO 32009KT 10SM CLR 00/M06 A3002 RMK AO2
KMOX 101936Z AUTO 32010KT 10SM CLR 00/M06 A3002 RMK AO2
KMOX 101915Z AUTO 32010KT 10SM CLR M01/M06 A3003 RMK AO2
KMOX 101855Z AUTO 31012KT 10SM CLR M01/M06 A3003 RMK AO2
KMOX 101835Z AUTO 33013KT 10SM CLR M01/M06 A3003 RMK AO2
KMOX 101815Z AUTO 32014KT 10SM CLR M01/M06 A3004 RMK AO2
KMOX 101755Z AUTO 32014G17KT 10SM CLR M01/M06 A3002 RMK AO2
KMOX 101735Z AUTO 32014KT 10SM CLR M01/M06 A3002 RMK AO2
KMOX 101715Z AUTO 32015KT 10SM CLR M02/M06 A3003 RMK AO2
KMOX 101655Z AUTO 31011G16KT 10SM CLR M02/M06 A3003 RMK AO2
KMOX 101635Z AUTO 32009KT 10SM CLR M02/M06 A3003 RMK AO2
KMOX 101615Z AUTO 33008KT 10SM CLR M03/M06 A3002 RMK AO2
KMOX 101555Z AUTO 33010KT 10SM CLR M03/M07 A3002 RMK AO2
KMOX 101535Z AUTO 34010KT 10SM CLR M04/M07 A3000 RMK AO2
KMOX 101515Z AUTO 34008KT 10SM CLR M04/M07 A3000 RMK AO2
KMOX 101455Z AUTO 34010KT 10SM CLR M04/M07 A3000 RMK AO2
KMOX 101435Z AUTO 33009KT 10SM CLR M04/M07 A3000 RMK AO2
KMOX 101415Z AUTO 32011KT 10SM CLR M04/M07 A2999 RMK AO2
KMOX 101355Z AUTO 33010KT 10SM CLR M04/M07 A2998 RMK AO2
KMOX 101335Z AUTO 33012KT 10SM CLR M04/M07 A2998 RMK AO2
KMOX 101315Z AUTO 32011KT 10SM CLR M04/M07 A2997 RMK AO2
KMOX 101255Z AUTO 32014G22KT 10SM CLR M03/M06 A2997 RMK AO2
KMOX 101235Z AUTO 32017G22KT 10SM BKN110 M02/M06 A2996 RMK AO2
KMOX 101215Z AUTO 32016G20KT 10SM BKN110 M02/M06 A2995 RMK AO2
KMOX 101155Z AUTO 33014KT 10SM SCT110 M02/M06 A2995 RMK AO2
KMOX 101135Z AUTO 34018G25KT 10SM BKN110 M02/M06 A2994 RMK AO2
KMOX 101115Z AUTO 32016G21KT 10SM CLR M02/M06 A2993 RMK AO2
KMOX 101055Z AUTO 33016G26KT 10SM CLR M02/M06 A2992 RMK AO2
KMOX 101035Z AUTO 32018G21KT 10SM CLR M01/M06 A2991 RMK AO2
KMOX 101015Z AUTO 32013KT 10SM CLR M01/M06 A2990 RMK AO2
KMOX 100955Z AUTO 33017G27KT 10SM CLR M01/M06 A2989 RMK AO2
KMOX 100935Z AUTO 32016G19KT 10SM CLR M01/M06 A2989 RMK AO2
KMOX 100915Z AUTO 32015G20KT 10SM CLR M01/M06 A2988 RMK AO2
KMOX 100855Z AUTO 31017KT 10SM CLR M02/M05 A2987 RMK AO2
KMOX 100835Z AUTO 32016G20KT 10SM CLR M01/M05 A2987 RMK AO2
KMOX 100815Z AUTO 32017KT 10SM CLR M01/M05 A2986 RMK AO2
KMOX 100755Z AUTO 32017G23KT 10SM CLR M01/M04 A2984 RMK AO2
KMOX 100735Z AUTO 32017KT 10SM CLR M01/M04 A2984 RMK AO2
KMOX 100715Z AUTO 32017G22KT 10SM CLR M01/M04 A2983 RMK AO2
KMOX 100655Z AUTO 32015KT 10SM CLR M01/M04 A2982 RMK AO2
KMOX 100635Z AUTO 31014KT 10SM CLR M01/M04 A2982 RMK AO2
KMOX 100615Z AUTO 31013KT 10SM CLR M01/M04 A2981 RMK AO2
KMOX 100555Z AUTO 30013KT 10SM CLR M01/M04 A2980 RMK AO2
KMOX 100535Z AUTO 29013KT 10SM CLR M01/M05 A2979 RMK AO2
KMOX 100515Z AUTO 29012KT 10SM CLR M02/M05 A2980 RMK AO2
KMOX 100455Z AUTO 28012KT 10SM CLR M03/M06 A2979 RMK AO2
KMOX 100435Z AUTO 27008KT 10SM CLR M03/M06 A2979 RMK AO2
KMOX 100415Z AUTO 26004KT 10SM CLR M04/M07 A2981 RMK AO2
KMOX 100355Z AUTO 23005KT 10SM CLR M04/M06 A2980 RMK AO2
KMOX 100335Z AUTO 21007KT 10SM CLR M06/M07 A2981 RMK AO2
KMOX 100315Z AUTO 18007KT 10SM CLR M06/M07 A2982 RMK AO2
KMOX 100255Z AUTO 19007KT 10SM CLR M06/M07 A2985 RMK AO2
KMOX 100235Z AUTO 18007KT 10SM CLR M06/M07 A2985 RMK AO2
KMOX 100215Z AUTO 19007KT 10SM CLR M05/M07 A2986 RMK AO2
KMOX 100155Z AUTO 19007KT 10SM CLR M04/M07 A2986 RMK AO2
KMOX 100136Z AUTO 19008KT 10SM CLR M04/M07 A2988 RMK AO2